Time;durP1;ratioP1;P1;durP2;ratioP2;P2;SDS_P1;SDS_P2;PMS_P1;PMS_P2;Temp;Humidity;BMP_temperature;BMP_pressure;BME280_temperature;BME280_humidity;BME280_pressure;Samples;Min_cycle;Max_cycle;Signal;HPM_P1;HPM_P2
2023/03/12 00:00:43;;;;;;;15.35;3.00;;;;;;;9.95;46.66;99420.75;4995380;28;20066;-84
2023/03/12 00:03:08;;;;;;;6.55;1.90;;;;;;;9.89;46.16;99410.59;4996809;28;20035;-82
2023/03/12 00:05:38;;;;;;;4.50;1.65;;;;;;;9.83;46.38;99426.34;4998930;28;20099;-81
2023/03/12 00:08:04;;;;;;;11.57;2.03;;;;;;;9.87;46.09;99428.72;4999012;28;20035;-82
2023/03/12 00:10:30;;;;;;;21.00;2.15;;;;;;;9.78;45.47;99439.34;4996511;28;20050;-85
2023/03/12 00:12:57;;;;;;;7.53;2.00;;;;;;;9.82;45.67;99438.06;4997880;28;20022;-85
2023/03/12 00:15:23;;;;;;;23.40;2.42;;;;;;;9.81;45.70;99444.41;4997661;28;20054;-82
2023/03/12 00:17:49;;;;;;;11.02;1.95;;;;;;;9.76;45.38;99440.47;4981649;28;20045;-85
2023/03/12 00:20:14;;;;;;;20.90;3.60;;;;;;;9.74;45.41;99437.13;4979845;28;20023;-87
2023/03/12 00:22:40;;;;;;;13.73;1.67;;;;;;;9.68;45.54;99449.28;4980322;28;20047;-86
2023/03/12 00:25:09;;;;;;;15.27;2.33;;;;;;;9.65;45.63;99464.84;4978094;28;20035;-85
2023/03/12 00:27:35;;;;;;;12.70;2.28;;;;;;;9.68;45.89;99476.13;4976420;28;20089;-86
2023/03/12 00:30:01;;;;;;;34.25;3.35;;;;;;;9.62;45.58;99470.50;4975939;28;20031;-88
2023/03/12 00:32:26;;;;;;;22.17;2.83;;;;;;;9.59;45.84;99458.25;4976382;28;20065;-86
2023/03/12 00:34:54;;;;;;;8.50;2.08;;;;;;;9.66;45.85;99478.09;4979309;28;20441;-86
2023/03/12 00:37:19;;;;;;;23.73;2.53;;;;;;;9.65;45.55;99468.38;4983888;28;20086;-82
2023/03/12 00:39:45;;;;;;;13.75;2.63;;;;;;;9.64;45.71;99469.38;4982148;28;20062;-85
2023/03/12 00:42:10;;;;;;;16.88;2.38;;;;;;;9.64;45.82;99474.72;4976903;28;20023;-86
2023/03/12 00:44:36;;;;;;;13.20;2.05;;;;;;;9.69;46.12;99461.69;4976921;28;20055;-85
2023/03/12 00:47:01;;;;;;;12.15;2.47;;;;;;;9.66;45.67;99462.00;4980356;28;20035;-85
2023/03/12 00:49:26;;;;;;;31.67;3.88;;;;;;;9.69;45.87;99442.91;4982626;28;20487;-84
2023/03/12 00:51:52;;;;;;;22.02;2.92;;;;;;;9.51;45.72;99455.41;4984753;28;20034;-84
2023/03/12 00:54:18;;;;;;;31.95;2.83;;;;;;;9.36;45.58;99446.16;4982521;28;20125;-86
2023/03/12 00:56:45;;;;;;;22.30;2.50;;;;;;;9.32;46.21;99436.72;4984003;28;20442;-85
2023/03/12 00:59:12;;;;;;;19.02;2.70;;;;;;;9.29;46.20;99431.66;4990213;28;20043;-81
2023/03/12 01:01:37;;;;;;;15.15;2.40;;;;;;;9.13;46.63;99434.09;4993753;28;20023;-81
2023/03/12 01:04:03;;;;;;;14.93;2.20;;;;;;;9.04;47.04;99426.91;4984559;28;20089;-85
2023/03/12 01:06:28;;;;;;;21.65;2.53;;;;;;;8.97;47.48;99431.13;4973510;28;20031;-84
2023/03/12 01:08:54;;;;;;;20.73;2.83;;;;;;;8.98;47.31;99422.13;4974194;28;20085;-84
2023/03/12 01:11:21;;;;;;;10.45;2.00;;;;;;;8.98;47.10;99433.69;4954260;28;20503;-84
2023/03/12 01:13:47;;;;;;;17.42;2.72;;;;;;;8.81;47.49;99422.88;4973498;28;20035;-86
2023/03/12 01:16:12;;;;;;;20.77;2.95;;;;;;;8.72;47.19;99433.44;4974503;28;20038;-86
2023/03/12 01:18:38;;;;;;;12.43;2.13;;;;;;;8.71;47.59;99442.44;4972935;28;20030;-87
2023/03/12 01:21:04;;;;;;;9.30;2.13;;;;;;;8.77;47.68;99436.53;4972764;28;20023;-86
2023/03/12 01:23:29;;;;;;;8.10;2.47;;;;;;;8.77;47.41;99429.50;4972052;28;20058;-85
2023/03/12 01:25:55;;;;;;;4.95;2.42;;;;;;;8.70;47.64;99435.41;4971862;28;20062;-85
2023/03/12 01:28:22;;;;;;;24.65;2.70;;;;;;;8.72;47.25;99430.75;4971690;28;20039;-87
2023/03/12 01:30:48;;;;;;;9.57;2.40;;;;;;;8.74;47.27;99398.47;4971758;28;20035;-87
2023/03/12 01:33:14;;;;;;;12.93;2.70;;;;;;;8.73;47.76;99419.06;4971872;28;20960;-87
2023/03/12 01:35:40;;;;;;;8.95;4.00;;;;;;;8.79;47.18;99425.66;4971678;28;20038;-87
2023/03/12 01:38:11;;;;;;;13.70;2.28;;;;;;;8.71;47.16;99430.91;4970145;28;20042;-85
2023/03/12 01:40:36;;;;;;;11.75;2.17;;;;;;;8.71;47.66;99431.72;4971733;28;20034;-86
2023/03/12 01:43:37;;;;;;;15.90;3.20;;;;;;;8.70;47.76;99446.13;4971478;28;20034;-85
2023/03/12 01:46:21;;;;;;;12.20;2.22;;;;;;;8.67;47.64;99451.78;4912222;29;20052;-86
2023/03/12 01:48:56;;;;;;;32.42;3.67;;;;;;;8.67;48.07;99457.16;4912424;29;20127;-85
2023/03/12 01:51:25;;;;;;;14.98;2.25;;;;;;;8.64;47.70;99478.88;4916442;29;20217;-84
2023/03/12 01:53:55;;;;;;;10.00;2.25;;;;;;;8.57;48.10;99483.09;4919804;29;20076;-87
2023/03/12 01:56:21;;;;;;;12.35;2.35;;;;;;;8.60;48.06;99487.31;4926596;29;20063;-85
2023/03/12 01:58:53;;;;;;;17.90;2.58;;;;;;;8.65;48.41;99506.53;4954642;28;20048;-81
2023/03/12 02:01:19;;;;;;;;;;;;;;;8.70;48.17;99521.19;4956039;28;20039;-82
2023/03/12 02:03:47;;;;;;;10.98;2.63;;;;;;;8.69;47.76;99535.56;4936138;29;20421;-85
2023/03/12 02:06:14;;;;;;;12.98;2.97;;;;;;;8.52;48.14;99528.22;4931647;29;20098;-87
2023/03/12 02:08:43;;;;;;;13.93;3.00;;;;;;;8.54;48.54;99547.69;4931022;29;20071;-86
2023/03/12 02:11:08;;;;;;;19.33;3.42;;;;;;;8.38;48.70;99536.63;4930634;29;20036;-85
2023/03/12 02:13:34;;;;;;;10.40;2.90;;;;;;;8.39;48.52;99542.84;4924263;29;20167;-85
2023/03/12 02:16:00;;;;;;;13.15;2.75;;;;;;;8.40;48.48;99550.75;4916241;29;20040;-85
2023/03/12 02:18:27;;;;;;;13.82;3.00;;;;;;;8.27;48.76;99544.75;4913552;29;20099;-86
2023/03/12 02:21:04;;;;;;;15.13;3.45;;;;;;;8.23;49.35;99546.00;4921561;28;20050;-86
2023/03/12 02:23:34;;;;;;;9.65;3.00;;;;;;;8.13;49.72;99542.47;4970301;28;20050;-86
2023/03/12 02:26:03;;;;;;;11.10;3.05;;;;;;;8.12;49.54;99533.59;4971860;28;20027;-85
2023/03/12 02:28:29;;;;;;;16.55;3.22;;;;;;;8.13;49.39;99518.38;4971544;28;20112;-85
2023/03/12 02:31:02;;;;;;;11.77;3.38;;;;;;;8.10;50.10;99505.25;4970976;28;20039;-86
2023/03/12 02:33:28;;;;;;;15.48;3.78;;;;;;;8.17;50.14;99507.22;4971130;28;20023;-85
2023/03/12 02:35:53;;;;;;;14.05;2.75;;;;;;;8.19;49.87;99504.44;4971281;28;20045;-85
2023/03/12 02:38:35;;;;;;;15.32;3.85;;;;;;;8.15;49.73;99493.16;4970913;28;20511;-87
2023/03/12 02:41:10;;;;;;;10.07;2.90;;;;;;;8.20;50.00;99498.06;4971468;28;20814;-87
2023/03/12 02:43:36;;;;;;;13.65;3.17;;;;;;;8.16;49.81;99477.94;4971376;28;20118;-82
2023/03/12 02:46:01;;;;;;;10.80;3.95;;;;;;;8.21;49.75;99491.75;4971045;28;20049;-86
2023/03/12 02:48:27;;;;;;;22.77;3.40;;;;;;;8.12;49.75;99471.16;4970891;28;20533;-85
2023/03/12 02:50:52;;;;;;;17.63;4.35;;;;;;;8.22;49.57;99486.22;4970649;28;20518;-85
2023/03/12 02:53:17;;;;;;;6.90;3.80;;;;;;;8.21;49.72;99489.91;4974485;28;20111;-85
2023/03/12 02:55:43;;;;;;;12.95;3.92;;;;;;;8.27;49.84;99495.69;4988930;28;20512;-84
2023/03/12 02:58:08;;;;;;;11.18;3.83;;;;;;;8.13;50.31;99488.91;4995545;28;20050;-82
2023/03/12 03:00:35;;;;;;;18.45;3.65;;;;;;;8.22;50.02;99520.22;4983075;28;20060;-88
2023/03/12 03:03:01;;;;;;;11.65;4.20;;;;;;;8.18;50.53;99513.44;4972853;28;20097;-85
2023/03/12 03:05:26;;;;;;;9.43;3.72;;;;;;;8.17;50.16;99511.75;4974208;28;20450;-86
2023/03/12 03:07:52;;;;;;;11.23;3.78;;;;;;;8.17;50.58;99519.78;4971443;28;20058;-87
2023/03/12 03:10:17;;;;;;;16.50;4.13;;;;;;;8.18;50.25;99540.22;4970867;28;20038;-85
2023/03/12 03:12:43;;;;;;;19.83;5.65;;;;;;;7.94;50.88;99534.38;4971761;28;20404;-87
2023/03/12 03:15:09;;;;;;;14.95;4.20;;;;;;;7.77;51.38;99551.06;4955759;28;20043;-84
2023/03/12 03:17:35;;;;;;;12.45;3.88;;;;;;;7.82;51.57;99559.53;4976842;28;20033;-84
2023/03/12 03:20:00;;;;;;;7.57;4.40;;;;;;;7.80;51.75;99554.28;4971035;28;20122;-85
2023/03/12 03:22:26;;;;;;;10.52;4.22;;;;;;;7.87;51.22;99562.63;4970815;28;20043;-85
2023/03/12 03:24:52;;;;;;;24.73;5.15;;;;;;;7.79;52.01;99579.38;4972964;28;20026;-84
2023/03/12 03:27:18;;;;;;;11.43;3.97;;;;;;;7.79;51.96;99602.63;4976875;28;20051;-85
2023/03/12 03:29:45;;;;;;;22.48;4.78;;;;;;;7.83;51.89;99599.53;4980876;28;20031;-87
2023/03/12 03:32:11;;;;;;;10.70;3.72;;;;;;;7.89;51.60;99641.00;4977915;28;20023;-88
2023/03/12 03:34:37;;;;;;;15.43;4.00;;;;;;;7.85;52.01;99650.25;4976460;28;20603;-84
2023/03/12 03:37:03;;;;;;;11.68;4.43;;;;;;;7.95;52.04;99677.94;4980279;28;20054;-84
2023/03/12 03:39:29;;;;;;;20.60;3.97;;;;;;;7.93;51.51;99685.25;4984200;28;20058;-84
2023/03/12 03:41:54;;;;;;;11.05;5.45;;;;;;;8.03;51.36;99696.88;4984091;28;20808;-85
2023/03/12 03:44:21;;;;;;;15.07;5.68;;;;;;;8.13;51.51;99698.63;4985264;28;20054;-82
2023/03/12 03:46:47;;;;;;;12.82;3.95;;;;;;;8.07;51.40;99691.09;4981862;28;20058;-84
2023/03/12 03:49:14;;;;;;;21.98;4.90;;;;;;;8.17;50.87;99710.78;4982588;28;20027;-84
2023/03/12 03:51:41;;;;;;;25.58;4.15;;;;;;;8.19;50.96;99724.03;4986080;28;20128;-85
2023/03/12 03:54:07;;;;;;;27.20;4.40;;;;;;;8.14;50.84;99732.47;4988284;28;20050;-82
2023/03/12 03:56:33;;;;;;;9.68;4.95;;;;;;;8.12;51.23;99736.25;4995241;28;20034;-82
2023/03/12 03:59:00;;;;;;;10.48;4.78;;;;;;;8.01;51.12;99752.41;4996177;28;20054;-83
2023/03/12 04:01:27;;;;;;;14.68;4.57;;;;;;;7.91;51.54;99746.13;4981389;28;20506;-86
2023/03/12 04:03:52;;;;;;;10.38;3.90;;;;;;;7.87;51.58;99777.63;4975999;28;20630;-86
2023/03/12 04:06:18;;;;;;;13.93;3.72;;;;;;;7.87;51.50;99776.78;4975689;28;20023;-86
2023/03/12 04:08:43;;;;;;;17.25;4.10;;;;;;;7.86;51.63;99791.16;4972478;28;20043;-84
2023/03/12 04:11:14;;;;;;;10.27;3.78;;;;;;;7.83;51.85;99791.41;4974912;28;20394;-86
2023/03/12 04:13:40;;;;;;;23.33;4.47;;;;;;;7.81;51.61;99802.25;4974772;28;20042;-84
2023/03/12 04:16:06;;;;;;;15.80;5.97;;;;;;;7.75;52.00;99793.88;4975903;28;20030;-86
2023/03/12 04:18:32;;;;;;;13.40;5.40;;;;;;;7.84;52.13;99817.19;4959371;28;20039;-88
2023/03/12 04:20:58;;;;;;;21.58;3.97;;;;;;;7.87;51.76;99824.97;4980832;28;20031;-85
2023/03/12 04:23:23;;;;;;;13.00;4.65;;;;;;;7.84;52.15;99835.94;4991736;28;20069;-82
2023/03/12 04:25:49;;;;;;;11.93;3.95;;;;;;;7.78;51.90;99839.13;4997350;28;20035;-81
2023/03/12 04:28:14;;;;;;;12.23;3.80;;;;;;;7.78;52.19;99842.66;4998497;28;20026;-82
2023/03/12 04:30:40;;;;;;;17.85;5.13;;;;;;;7.80;51.90;99861.28;4998311;28;20057;-85
2023/03/12 04:33:06;;;;;;;15.88;4.32;;;;;;;7.77;52.32;99866.88;4999478;28;20029;-81
2023/03/12 04:35:31;;;;;;;20.60;5.10;;;;;;;7.75;52.28;99874.16;4999663;28;20144;-87
2023/03/12 04:37:59;;;;;;;20.40;4.25;;;;;;;7.75;52.64;99858.09;4993522;28;20060;-87
2023/03/12 04:40:24;;;;;;;16.90;4.25;;;;;;;7.80;52.28;99871.97;4974124;28;20031;-87
2023/03/12 04:42:50;;;;;;;20.10;4.50;;;;;;;7.78;52.71;99852.50;4973988;28;20029;-86
2023/03/12 04:45:15;;;;;;;5.43;4.30;;;;;;;7.84;52.44;99846.63;4973553;28;20031;-85
2023/03/12 04:47:41;;;;;;;10.88;5.13;;;;;;;7.62;52.46;99836.84;4978785;28;20027;-83
2023/03/12 04:50:07;;;;;;;13.80;5.15;;;;;;;7.57;52.74;99834.56;4981173;28;20122;-84
2023/03/12 04:52:32;;;;;;;11.20;4.28;;;;;;;7.47;53.05;99833.59;4986171;28;20062;-88
2023/03/12 04:55:01;;;;;;;15.32;4.47;;;;;;;7.46;52.99;99861.31;4997303;28;20038;-87
2023/03/12 04:57:26;;;;;;;13.10;4.05;;;;;;;7.60;53.33;99870.91;4998266;28;20027;-83
2023/03/12 04:59:52;;;;;;;5.95;4.03;;;;;;;7.70;53.05;99865.66;4986727;28;20039;-89
2023/03/12 05:02:17;;;;;;;14.05;4.55;;;;;;;7.78;52.67;99858.69;4983704;28;20031;-88
2023/03/12 05:04:43;;;;;;;7.38;4.40;;;;;;;7.75;52.60;99866.13;4980297;28;20035;-85
2023/03/12 05:07:08;;;;;;;15.10;4.78;;;;;;;7.78;52.33;99874.75;4982353;28;20501;-84
2023/03/12 05:09:34;;;;;;;11.77;4.28;;;;;;;7.90;52.47;99886.28;4984918;28;20049;-86
2023/03/12 05:11:59;;;;;;;23.02;4.95;;;;;;;8.04;51.49;99894.88;4979204;28;20035;-84
2023/03/12 05:14:25;;;;;;;10.88;4.47;;;;;;;7.73;51.83;99876.97;4979265;28;20069;-86
2023/03/12 05:16:50;;;;;;;37.08;5.10;;;;;;;7.91;51.54;99906.75;4972250;28;20174;-85
2023/03/12 05:19:16;;;;;;;8.63;4.40;;;;;;;7.94;51.73;99909.16;4973516;28;20107;-86
2023/03/12 05:21:41;;;;;;;12.23;4.57;;;;;;;7.86;51.71;99900.91;4972359;28;20035;-86
2023/03/12 05:24:08;;;;;;;15.65;4.20;;;;;;;7.89;51.95;99898.00;4971431;28;20446;-87
2023/03/12 05:26:34;;;;;;;24.88;6.20;;;;;;;7.99;51.90;99901.59;4975159;28;20379;-85
2023/03/12 05:29:00;;;;;;;26.42;4.70;;;;;;;8.06;51.50;99917.03;4975381;28;20053;-85
2023/03/12 05:31:27;;;;;;;19.30;5.13;;;;;;;8.01;52.03;99926.44;4974114;28;20516;-87
2023/03/12 05:33:53;;;;;;;13.88;4.50;;;;;;;8.04;51.27;99905.59;4972846;28;20046;-87
2023/03/12 05:36:19;;;;;;;12.68;5.82;;;;;;;8.30;51.03;99935.63;4973114;28;20114;-87
2023/03/12 05:38:45;;;;;;;14.15;5.05;;;;;;;8.30;50.93;99942.81;4974333;28;20494;-85
2023/03/12 05:41:22;;;;;;;26.48;6.18;;;;;;;8.23;51.16;99945.09;4979154;28;20046;-84
2023/03/12 05:43:49;;;;;;;13.98;4.65;;;;;;;8.24;51.05;99941.44;4974950;28;20061;-86
2023/03/12 05:46:14;;;;;;;10.30;4.05;;;;;;;8.35;50.66;99954.81;4974759;28;20023;-88
2023/03/12 05:48:40;;;;;;;10.77;4.63;;;;;;;8.45;50.72;99963.81;4979082;28;20031;-84
2023/03/12 05:51:06;;;;;;;18.20;4.35;;;;;;;8.57;49.80;99964.63;4977506;28;20461;-86
2023/03/12 05:53:31;;;;;;;24.63;4.25;;;;;;;8.69;50.09;99968.94;4990148;28;20038;-82
2023/03/12 05:56:05;;;;;;;12.80;4.50;;;;;;;8.74;49.42;99972.94;4995727;28;20031;-85
2023/03/12 05:58:31;;;;;;;24.63;4.60;;;;;;;8.63;49.52;99964.09;4981650;28;20066;-87
2023/03/12 06:00:56;;;;;;;18.65;4.82;;;;;;;8.86;49.29;99989.00;4973577;28;20126;-87
2023/03/12 06:03:22;;;;;;;13.10;4.10;;;;;;;8.97;49.58;99994.28;4973704;28;20458;-87
2023/03/12 06:05:49;;;;;;;22.02;4.30;;;;;;;9.02;49.00;99997.44;4974228;28;20470;-88
2023/03/12 06:08:15;;;;;;;16.42;4.07;;;;;;;8.94;48.53;99989.19;4974325;28;20030;-85
2023/03/12 06:10:40;;;;;;;29.50;5.03;;;;;;;8.95;48.91;100005.16;4973111;28;20106;-85
2023/03/12 06:13:07;;;;;;;22.38;5.18;;;;;;;9.12;48.28;100009.94;4973891;28;20042;-88
2023/03/12 06:15:33;;;;;;;18.77;5.03;;;;;;;9.20;48.50;100007.44;4973525;28;20034;-86
2023/03/12 06:17:58;;;;;;;23.40;4.45;;;;;;;9.43;48.13;100008.16;4972415;28;20034;-84
2023/03/12 06:20:23;;;;;;;8.75;4.32;;;;;;;9.38;47.85;100014.91;4970997;28;20081;-86
2023/03/12 06:22:49;;;;;;;11.32;3.85;;;;;;;9.54;47.20;100023.34;4972008;28;20054;-88
2023/03/12 06:25:15;;;;;;;20.52;4.75;;;;;;;9.41;47.30;100020.84;4973188;28;20031;-85
2023/03/12 06:27:40;;;;;;;11.88;4.32;;;;;;;9.50;47.31;100030.78;4974140;28;20065;-86
2023/03/12 06:30:09;;;;;;;10.48;3.42;;;;;;;9.59;47.17;100023.78;4971604;28;20125;-83
2023/03/12 06:32:34;;;;;;;18.17;4.82;;;;;;;9.56;46.96;100030.28;4971325;28;20046;-82
2023/03/12 06:35:03;;;;;;;18.45;4.78;;;;;;;9.72;46.75;100035.16;4971617;28;20096;-85
2023/03/12 06:37:28;;;;;;;11.30;4.10;;;;;;;9.82;46.73;100042.25;4972665;28;20043;-85
2023/03/12 06:39:54;;;;;;;13.60;4.22;;;;;;;9.80;46.44;100035.31;4971719;28;20541;-83
2023/03/12 06:42:21;;;;;;;17.60;4.40;;;;;;;9.90;46.46;100038.06;4976717;28;20039;-82
2023/03/12 06:44:47;;;;;;;17.63;3.38;;;;;;;10.04;46.19;100051.13;4973706;28;20037;-82
2023/03/12 06:47:12;;;;;;;9.48;4.15;;;;;;;10.13;46.19;100050.28;4973781;28;20039;-83
2023/03/12 06:49:38;;;;;;;30.73;4.72;;;;;;;10.30;45.97;100055.06;4973512;28;20126;-84
2023/03/12 06:52:03;;;;;;;15.18;3.95;;;;;;;10.43;45.22;100052.97;4988831;28;20051;-82
2023/03/12 06:54:29;;;;;;;12.60;4.43;;;;;;;10.64;45.24;100040.28;4991304;28;20038;-84
2023/03/12 06:56:54;;;;;;;19.00;4.65;;;;;;;10.79;44.48;100065.75;4980186;28;20060;-88
2023/03/12 06:59:20;;;;;;;7.90;4.30;;;;;;;10.82;44.10;100070.88;4976316;28;20074;-88
2023/03/12 07:01:47;;;;;;;28.02;4.00;;;;;;;10.84;44.40;100076.97;4972438;28;20038;-81
2023/03/12 07:04:13;;;;;;;10.93;3.67;;;;;;;10.99;43.83;100076.56;4974899;28;20074;-81
2023/03/12 07:06:38;;;;;;;24.45;4.90;;;;;;;10.98;43.46;100077.56;4974919;28;20047;-83
2023/03/12 07:09:04;;;;;;;13.88;4.68;;;;;;;11.08;43.58;100094.53;4974987;28;20046;-82
2023/03/12 07:11:29;;;;;;;35.40;5.70;;;;;;;11.19;43.71;100094.41;4974917;28;20042;-82
2023/03/12 07:13:56;;;;;;;15.75;3.58;;;;;;;11.13;43.04;100097.69;4972928;28;20053;-82
2023/03/12 07:16:22;;;;;;;14.07;4.22;;;;;;;11.23;42.78;100106.59;4974874;28;20026;-81
2023/03/12 07:18:47;;;;;;;13.13;3.60;;;;;;;11.32;42.65;100113.81;4973884;28;20781;-82
2023/03/12 07:21:15;;;;;;;22.35;5.10;;;;;;;11.24;42.49;100108.28;4974264;28;20462;-82
2023/03/12 07:23:41;;;;;;;15.57;3.72;;;;;;;11.50;42.38;100122.88;4974087;28;20050;-83
2023/03/12 07:26:06;;;;;;;10.70;3.28;;;;;;;11.54;42.14;100110.81;4974251;28;20035;-83
2023/03/12 07:28:32;;;;;;;11.88;3.78;;;;;;;11.56;41.72;100126.84;4973588;28;20043;-81
2023/03/12 07:31:03;;;;;;;22.42;4.70;;;;;;;11.54;42.10;100126.13;4971119;28;20027;-83
2023/03/12 07:33:28;;;;;;;13.48;4.75;;;;;;;11.59;42.21;100129.25;4976166;28;20039;-82
2023/03/12 07:35:54;;;;;;;21.48;4.82;;;;;;;11.76;41.77;100133.94;4974423;28;20034;-83
2023/03/12 07:38:19;;;;;;;12.18;4.30;;;;;;;11.61;41.73;100141.59;4974003;28;20456;-81
2023/03/12 07:40:50;;;;;;;17.65;4.03;;;;;;;11.57;41.61;100136.63;4973853;28;20035;-82
2023/03/12 07:43:15;;;;;;;8.15;3.72;;;;;;;11.54;42.11;100148.53;4973591;28;20035;-82
2023/03/12 07:45:41;;;;;;;18.90;3.60;;;;;;;11.46;42.18;100141.19;4973729;28;20057;-82
2023/03/12 07:48:06;;;;;;;11.68;3.75;;;;;;;11.48;41.85;100138.31;4973999;28;20027;-82
2023/03/12 07:50:32;;;;;;;10.10;4.35;;;;;;;11.32;41.80;100149.66;4980229;28;20030;-80
2023/03/12 07:52:58;;;;;;;15.82;5.43;;;;;;;11.22;42.40;100148.78;4989745;28;20058;-80
2023/03/12 07:55:24;;;;;;;24.08;4.53;;;;;;;11.15;42.49;100163.81;4976619;28;20031;-81
2023/03/12 07:57:49;;;;;;;17.48;3.88;;;;;;;11.10;42.52;100166.06;4973216;28;20513;-83
2023/03/12 08:00:15;;;;;;;13.57;3.67;;;;;;;11.03;43.28;100158.69;4974368;28;20593;-81
2023/03/12 08:02:41;;;;;;;13.15;4.03;;;;;;;11.15;43.53;100173.75;4973434;28;20035;-80
2023/03/12 08:05:07;;;;;;;22.70;4.90;;;;;;;11.29;43.56;100165.25;4968790;28;20083;-80
2023/03/12 08:07:33;;;;;;;15.80;4.88;;;;;;;11.48;43.06;100160.72;4954950;28;20090;-81
2023/03/12 08:09:59;;;;;;;12.73;4.38;;;;;;;11.68;42.39;100166.94;4953792;28;20117;-82
2023/03/12 08:12:25;;;;;;;16.95;4.55;;;;;;;11.69;42.33;100168.66;4954985;28;20110;-81
2023/03/12 08:14:51;;;;;;;19.05;5.10;;;;;;;11.76;42.03;100169.81;4958363;28;20035;-83
2023/03/12 08:17:17;;;;;;;26.02;6.85;;;;;;;11.86;42.45;100189.50;4973119;28;20026;-80
2023/03/12 08:19:42;;;;;;;28.70;5.93;;;;;;;11.94;41.78;100195.03;4973500;28;20078;-82
2023/03/12 08:22:08;;;;;;;18.27;6.13;;;;;;;11.97;42.07;100189.34;4974622;28;20520;-85
2023/03/12 08:24:34;;;;;;;24.35;6.70;;;;;;;12.06;41.52;100197.56;4973830;28;20050;-87
2023/03/12 08:27:00;;;;;;;27.08;4.57;;;;;;;12.18;41.42;100196.41;4974030;28;20033;-86
2023/03/12 08:29:25;;;;;;;15.15;5.20;;;;;;;12.41;41.10;100211.25;4973133;28;20479;-81
2023/03/12 08:31:51;;;;;;;11.00;4.53;;;;;;;12.43;40.71;100217.34;4972891;28;20457;-81
2023/03/12 08:34:16;;;;;;;16.23;4.35;;;;;;;12.40;40.91;100229.28;4972113;28;20419;-77
2023/03/12 08:36:42;;;;;;;13.75;3.58;;;;;;;12.52;41.13;100232.66;4969539;28;20030;-79
2023/03/12 08:39:07;;;;;;;16.48;4.55;;;;;;;12.61;40.73;100236.31;4971999;28;20134;-78
2023/03/12 08:41:33;;;;;;;15.93;4.75;;;;;;;12.73;41.13;100248.59;4973141;28;20105;-78
2023/03/12 08:43:58;;;;;;;16.77;5.07;;;;;;;12.69;40.01;100234.56;4973015;28;20089;-77
2023/03/12 08:46:24;;;;;;;10.68;4.40;;;;;;;12.68;40.31;100242.81;4975249;28;20039;-80
2023/03/12 08:48:49;;;;;;;17.05;4.75;;;;;;;12.61;40.18;100258.75;4982540;28;20038;-78
2023/03/12 08:51:15;;;;;;;22.17;6.55;;;;;;;12.43;40.54;100242.47;4993050;28;20037;-78
2023/03/12 08:53:41;;;;;;;15.68;5.70;;;;;;;12.48;40.46;100258.19;4988458;28;20030;-80
2023/03/12 08:56:07;;;;;;;21.60;5.53;;;;;;;12.47;40.85;100267.31;4976654;28;20033;-79
2023/03/12 08:58:32;;;;;;;11.75;5.60;;;;;;;12.53;41.07;100267.59;4984054;28;20051;-82
2023/03/12 09:00:58;;;;;;;9.23;4.43;;;;;;;12.63;40.12;100259.44;4990860;28;20034;-87
2023/03/12 09:03:25;;;;;;;17.10;4.95;;;;;;;12.74;40.62;100275.47;4977455;28;20042;-86
2023/03/12 09:06:00;;;;;;;14.98;4.40;;;;;;;12.86;40.17;100274.28;4972772;28;20074;-85
2023/03/12 09:08:25;;;;;;;16.13;5.80;;;;;;;12.81;39.26;100263.06;4975091;28;20035;-87
2023/03/12 09:10:51;;;;;;;14.65;4.95;;;;;;;12.71;40.07;100275.75;4975718;28;20049;-93
2023/03/12 09:13:16;;;;;;;30.85;5.93;;;;;;;12.76;39.92;100278.00;4976008;28;20041;-87
2023/03/12 09:16:02;;;;;;;16.45;4.18;;;;;;;12.92;39.86;100280.94;4974123;28;20007;-88
2023/03/12 09:18:32;;;;;;;37.97;5.25;;;;;;;13.13;39.81;100280.72;4953731;28;20047;-85
2023/03/12 09:20:58;;;;;;;14.07;5.13;;;;;;;13.35;39.37;100283.03;4954103;28;20126;-90
2023/03/12 09:23:24;;;;;;;13.45;3.97;;;;;;;13.44;39.01;100288.38;4954676;28;20151;-88
2023/03/12 09:25:51;;;;;;;22.73;4.05;;;;;;;13.51;38.46;100285.94;4931946;29;20032;-83
2023/03/12 09:28:16;;;;;;;9.13;2.97;;;;;;;13.64;38.35;100280.97;4947697;28;20043;-82
2023/03/12 09:30:42;;;;;;;16.60;4.07;;;;;;;13.88;37.83;100281.22;4938344;28;20037;-82
2023/03/12 09:33:08;;;;;;;8.82;3.55;;;;;;;14.22;37.55;100292.19;4954586;28;20051;-80
2023/03/12 09:35:35;;;;;;;21.35;4.93;;;;;;;14.40;37.12;100289.50;4963872;28;20041;-85
2023/03/12 09:38:01;;;;;;;14.45;3.33;;;;;;;14.50;37.00;100292.94;4955631;28;20035;-85
2023/03/12 09:40:30;;;;;;;15.85;4.68;;;;;;;14.26;36.85;100309.81;4952399;28;20629;-82
2023/03/12 09:43:23;;;;;;;17.25;4.47;;;;;;;14.22;37.11;100299.47;4955206;28;20043;-88
2023/03/12 09:45:50;;;;;;;8.27;3.97;;;;;;;14.12;36.92;100286.88;4919003;29;20071;-78
2023/03/12 09:48:30;;;;;;;14.68;4.20;;;;;;;14.29;37.39;100298.69;4902263;29;20451;-82
2023/03/12 09:51:00;;;;;;;30.67;4.07;;;;;;;14.33;37.26;100299.25;4934235;29;20059;-83
2023/03/12 09:53:35;;;;;;;6.88;3.63;;;;;;;14.49;36.80;100302.09;4934162;29;20038;-82
2023/03/12 09:56:09;;;;;;;13.40;3.33;;;;;;;14.37;36.56;100303.34;4936076;29;20507;-84
2023/03/12 09:58:37;;;;;;;6.80;3.30;;;;;;;14.32;36.91;100311.03;4932703;29;20039;-85
2023/03/12 10:01:24;;;;;;;9.95;3.38;;;;;;;14.31;36.84;100312.06;4871615;29;20658;-85
2023/03/12 10:04:01;;;;;;;12.57;4.47;;;;;;;14.36;37.25;100317.88;4896136;29;20059;-85
2023/03/12 10:06:48;;;;;;;16.85;3.33;;;;;;;14.39;37.13;100312.16;4895572;29;20060;-88
2023/03/12 10:09:32;;;;;;;17.20;3.92;;;;;;;14.45;37.24;100320.50;4891311;29;20512;-88
2023/03/12 10:12:28;;;;;;;55.42;22.63;;;;;;;14.54;36.54;100316.00;4889490;29;20037;-86
2023/03/12 10:15:15;;;;;;;12.48;3.67;;;;;;;14.56;35.53;100316.66;4894762;29;20033;-83
2023/03/12 10:18:19;;;;;;;14.10;3.72;;;;;;;14.50;35.52;100322.72;4895051;29;20050;-86
2023/03/12 10:21:06;;;;;;;12.45;2.63;;;;;;;14.42;35.06;100326.22;4895507;29;20045;-82
2023/03/12 10:24:12;;;;;;;10.23;3.13;;;;;;;14.48;35.23;100324.72;4935073;28;20151;-87
2023/03/12 10:26:44;;;;;;;35.17;6.05;;;;;;;14.64;35.78;100331.13;4901507;29;20056;-87
2023/03/12 10:29:17;;;;;;;;;;;;;;;14.65;35.55;100332.81;4897041;29;20072;-81
2023/03/12 10:31:48;;;;;;;19.83;4.10;;;;;;;14.60;35.60;100331.59;4905636;29;19910;-81
2023/03/12 10:34:29;;;;;;;16.77;3.53;;;;;;;14.63;34.79;100333.97;4940580;29;20593;-89
2023/03/12 10:37:01;;;;;;;29.13;3.75;;;;;;;14.61;35.45;100325.19;4935592;29;20127;-86
2023/03/12 10:39:27;;;;;;;9.35;4.53;;;;;;;14.85;35.36;100338.03;4948845;29;20514;-85
2023/03/12 10:41:52;;;;;;;14.88;3.10;;;;;;;14.83;35.19;100324.63;4944646;29;20039;-86
2023/03/12 10:44:23;;;;;;;16.45;4.15;;;;;;;14.60;35.39;100312.66;4958824;28;20103;-85
2023/03/12 10:47:04;;;;;;;5.93;2.63;;;;;;;14.69;35.54;100322.53;4928276;29;20135;-85
2023/03/12 10:49:33;;;;;;;13.02;3.60;;;;;;;14.56;36.02;100327.50;4930925;29;20115;-86
2023/03/12 10:52:16;;;;;;;26.75;5.10;;;;;;;14.63;36.32;100331.28;4930756;29;20126;-83
2023/03/12 10:54:44;;;;;;;11.77;4.40;;;;;;;14.65;35.96;100326.53;4930875;29;20159;-85
2023/03/12 10:57:11;;;;;;;12.73;3.65;;;;;;;14.66;35.75;100330.97;4930222;29;20054;-86
2023/03/12 10:59:42;;;;;;;26.80;4.60;;;;;;;14.58;35.76;100326.34;4932388;29;20602;-86
2023/03/12 11:02:31;;;;;;;15.85;3.55;;;;;;;14.80;36.38;100329.53;4951498;28;20102;-85
2023/03/12 11:04:58;;;;;;;6.70;3.22;;;;;;;14.74;35.99;100328.28;4960433;28;20291;-87
2023/03/12 11:07:28;;;;;;;12.27;4.28;;;;;;;14.75;35.94;100338.13;4971046;28;20134;-84
2023/03/12 11:10:05;;;;;;;6.57;3.25;;;;;;;14.94;35.59;100337.94;4970462;28;20143;-85
2023/03/12 11:12:34;;;;;;;30.70;4.10;;;;;;;14.76;36.03;100339.84;4970734;28;20034;-85
2023/03/12 11:15:20;;;;;;;34.97;5.55;;;;;;;14.69;36.25;100336.06;4970398;28;20486;-84
2023/03/12 11:17:47;;;;;;;14.55;4.20;;;;;;;14.70;36.26;100326.94;4965635;28;20494;-83
2023/03/12 11:20:25;;;;;;;9.90;3.05;;;;;;;14.67;35.98;100340.78;4951070;28;20034;-85
2023/03/12 11:22:50;;;;;;;14.85;4.32;;;;;;;14.68;36.52;100326.22;4952172;28;20094;-87
2023/03/12 11:25:23;;;;;;;16.05;4.38;;;;;;;14.61;36.27;100346.84;4952370;28;20491;-90
2023/03/12 11:27:53;;;;;;;23.58;6.38;;;;;;;14.80;36.63;100343.09;4953462;28;20027;-88
2023/03/12 11:30:49;;;;;;;7.47;3.97;;;;;;;14.94;35.78;100337.94;4954066;28;20038;-88